Tiempo atmosférico en la estación meteorológica de Zorita, Cáceres (413 m.)



Fecha
DESCASC
Temp. máxima en grados centígrados (hora)
DESCASC
Temp. mínima en grados centígrados (hora)
DESCASC
Temp. media en grados centígrados
DESCASC
Racha de viento máxima en m/sg (hora)
DESCASC
Velocidad máxima media en intervalos de 10 minutos(hora)
DESCASC
Precipitaciones diarias en mm
DESCASC
Precipitaciones de 00:00 a 06:00 en mm
DESCASC
Precipitaciones de 06:00 a 12:00 en mm
DESCASC
Precipitaciones de 12:00 a 18:00 en mm
DESCASC
Precipitaciones de 18:00 a 24:00 en mm
DESCASC
17-10-2019 18.9 (18:20) 11.1 (03:50) 15 6.94 (19:50) 5 (19:50) 1.2 0 1.2 0 0
16-10-2019 19.4 (16:20) 8.9 (08:50) 14.1 6.39 (19:10) 4.72 (19:10) 0 0 0 0 0
15-10-2019 17.7 (17:40) 7.1 (07:30) 12.4 8.61 (16:10) 5.83 (01:40) 0.2 0.2 0 0 0
14-10-2019 21 (00:00) 10.8 (23:59) 15.9 16.11 (16:00) 10.28 (16:00) 8.2 0 2.2 6 0
13-10-2019 25.6 (17:50) 14.4 (00:00) 20 8.33 (14:20) 5.28 (12:20) 0 0 0 0 0
12-10-2019 29.6 (15:40) 21.1 (00:00) 25.4 14.17 (16:30) 7.5 (16:40) 0 0 0 0 0
11-10-2019 29.3 (16:10) 19.3 (00:00) 24.3 7.22 (15:40) 4.72 (11:00) 0 0 0 0 0
10-10-2019 31.1 (17:40) 15.7 (00:00) 23.4 6.39 (01:30) 5.83 (01:30) 0 0 0 0 0
09-10-2019 30.6 (16:20) 17.3 (00:00) 23.9 8.33 (17:50) 6.11 (18:40) 0 0 0 0 0
08-10-2019 32.7 (17:10) 18.8 (00:00) 25.8 5.83 (13:00) 4.17 (12:00) 0 0 0 0 0
07-10-2019 31.5 (17:20) 15.8 (00:00) 23.7 6.11 (16:20) 4.72 (03:10) 0 0 0 0 0
06-10-2019 29.4 (17:40) 12.2 (00:00) 20.8 8.33 (01:10) 6.11 (01:00) 0 0 0 0 0
05-10-2019 27.3 (16:50) 13 (00:00) 20.1 7.78 (02:10) 6.11 (02:10) 0 0 0 0 0
04-10-2019 27.8 (17:20) 14 (00:00) 20.9 8.06 (01:10) 6.11 (02:00) 0 0 0 0 0
03-10-2019 28.5 (17:40) 13.2 (00:00) 20.8 8.89 (15:50) 6.11 (18:00) 0 0 0 0 0
02-10-2019 27.1 (17:00) 12.4 (00:00) 19.8 11.67 (17:00) 8.06 (18:10) 0 0 0 0 0
01-10-2019 26.8 (17:10) 14.4 (00:00) 20.6 13.61 (18:10) 9.17 (18:10) 0 0 0 0 0
30-09-2019 31.6 (17:30) 16.1 (00:00) 23.9 6.94 (18:00) 4.17 (02:50) 0 0 0 0 0
29-09-2019 32.2 (16:50) 16.4 (00:00) 24.3 9.44 (17:30) 5.28 (17:30) 0 0 0 0 0
28-09-2019 31.3 (17:30) 15.7 (00:00) 23.5 6.94 (16:30) 3.33 (10:50) 0 0 0 0 0
27-09-2019 30.2 (16:50) 16 (00:00) 23.1 9.72 (17:50) 5.56 (18:10) 0 0 0 0 0
26-09-2019 29.5 (17:50) 15.1 (00:00) 22.3 7.5 (03:00) 6.11 (03:00) 0 0 0 0 0
25-09-2019 26.7 (17:40) 13.4 (00:00) 20.1 10.83 (00:50) 8.33 (10:20) 0 0 0 0 0
24-09-2019 27.9 (15:50) 14.7 (00:00) 21.3 10.83 (17:00) 8.06 (19:40) 0 0 0 0 0
23-09-2019 26.1 (18:00) 12.2 (00:00) 19.2 6.39 (18:10) 4.44 (19:20) 0 0 0 0 0
22-09-2019 23.4 (17:20) 13.5 (00:00) 18.4 10.56 (13:30) 6.94 (14:30) 1.2 1 0.2 0 0
21-09-2019 21.7 (18:10) 16.7 (00:00) 19.2 8.89 (23:30) 6.11 (23:30) 1.4 0 0 1.4 0
20-09-2019 27.6 (15:30) 17.9 (00:00) 22.8 11.94 (18:30) 9.17 (18:30) 0 0 0 0 0

Gráficas

Temp. máximas Temp. mínimas Temp. medias Precipitaciones Rachas de viento máximas Velocidades máximas media en intervalos de 10 minutos

Datos horarios

Fecha y hora oficial Temperatura (ºC) Velocidad del viento (km/h) Dirección del viento Racha (km/h) Dirección de racha Precipitación (mm) Presión (hPa) Tendencia (hPa) Humedad (%)
2019-10-19 23:00:00 13.6 22 Oeste 40 Oeste 0.2 -- -- 83
2019-10-19 22:00:00 15.4 20 Sudoeste 32 Oeste 0.2 -- -- 91
2019-10-19 21:00:00 15.7 17 Sudoeste 37 Sudoeste 2.2 -- -- 91
2019-10-19 20:00:00 15.7 14 Noroeste 54 Sudoeste 0.6 -- -- 89
2019-10-19 19:00:00 19.1 15 Sur 24 Sur 0 -- -- 66
2019-10-19 18:00:00 19.1 19 Sur 30 Sur 0 -- -- 65
2019-10-19 17:00:00 17.8 13 Sudeste 27 Este 0 -- -- 78
2019-10-19 16:00:00 16.3 17 Este 25 Este 0 -- -- 87
2019-10-19 15:00:00 14.4 17 Este 26 Nordeste 0.2 -- -- 91
2019-10-19 14:00:00 13 14 Este 22 Sudeste 0.8 -- -- 94
2019-10-19 13:00:00 13.8 18 Sudeste 33 Sudeste 0 -- -- 87
2019-10-19 12:00:00 14.8 16 Sudeste 24 Sudeste 0 -- -- 70
2019-10-19 11:00:00 13.3 13 Nordeste 19 Nordeste 0 -- -- 81
2019-10-19 10:00:00 12.7 10 Este 17 Nordeste 0 -- -- 84
2019-10-19 09:00:00 10.8 8 Este 13 Este 0 -- -- 93
2019-10-19 08:00:00 10.4 3 Nordeste 5 Sur 0 -- -- 91
2019-10-19 07:00:00 11.1 3 Sur 10 Sur 0 -- -- 88
2019-10-19 06:00:00 11.7 4 Sur 11 Sudoeste 0 -- -- 85
2019-10-19 05:00:00 12.7 8 Sudoeste 14 Sudoeste 0 -- -- 81
2019-10-19 04:00:00 13.2 9 Sur 13 Sur 0 -- -- 77
2019-10-19 03:00:00 14.1 4 Sudoeste 15 Sudoeste 0 -- -- 75
2019-10-19 02:00:00 14.4 6 Sudoeste 10 Sudoeste 0 -- -- 72
2019-10-19 01:00:00 14.6 3 Noroeste 13 Noroeste 0 -- -- 71
2019-10-19 00:00:00 15.2 9 Noroeste 18 Noroeste 0 -- -- 69
2019-10-18 23:00:00 15.7 16 Noroeste 32 Noroeste 0 -- -- 65
2019-10-18 22:00:00 16.5 17 Noroeste 23 Noroeste 0 -- -- 63
2019-10-18 21:00:00 16.6 15 Oeste 22 Oeste 0 -- -- 61
2019-10-18 20:00:00 17.6 17 Oeste 28 Sudoeste 0 -- -- 56
2019-10-18 19:00:00 19.6 21 Sudoeste 32 Sudoeste 0 -- -- 51
2019-10-18 18:00:00 20.5 19 Sudoeste 31 Sur 0 -- -- 49
2019-10-18 17:00:00 20.8 18 Sudoeste 33 Sudoeste 0 -- -- 52
2019-10-18 16:00:00 20.3 21 Sudoeste 37 Sudoeste 0 -- -- 59
2019-10-18 15:00:00 20.4 24 Sudoeste 34 Sudoeste 0 -- -- 69
2019-10-18 14:00:00 20.8 19 Sudoeste 28 Sur 0 -- -- 76
2019-10-18 13:00:00 19.3 10 Sur 17 Sur 0 -- -- 82
2019-10-18 12:00:00 17.2 6 Sur 10 Sudoeste 0 -- -- 93
2019-10-18 11:00:00 16.4 9 Sur 12 Sur 0.2 -- -- 94
2019-10-18 10:00:00 16.4 5 Sur 9 Sur 0.2 -- -- 94
2019-10-18 09:00:00 16.4 3 Sudoeste 8 Sur 0 -- -- 92
2019-10-18 08:00:00 16.4 6 Sur 11 Sudoeste 0 -- -- 92
2019-10-18 07:00:00 16.4 4 Sur 15 Oeste 0 -- -- 92
2019-10-18 06:00:00 16.6 6 Sur 13 Sudoeste 0 -- -- 93
2019-10-18 05:00:00 16.7 8 Sudoeste 18 Sudoeste 0 -- -- 92
2019-10-18 04:00:00 16.8 6 Sudeste 14 Sudoeste 0 -- -- 93
2019-10-18 03:00:00 16.9 10 Sudoeste 14 Sudoeste 0 -- -- 92
2019-10-18 02:00:00 17 8 Sur 14 Sur 0 -- -- 93
2019-10-18 01:00:00 17.1 12 Sudoeste 20 Sudoeste 0 -- -- 93
2019-10-18 00:00:00 17.4 6 Sudoeste 19 Oeste 0 -- -- 91
2019-10-17 23:00:00 17.3 12 Sudoeste 21 Sudoeste 0 -- -- 91
2019-10-17 22:00:00 18 7 Sudoeste 10 Oeste 0 -- -- 85
2019-10-17 21:00:00 18.1 2 Sudoeste 9 Oeste 0 -- -- 84
2019-10-17 20:00:00 17.8 8 Sudoeste 25 Sudoeste 0 -- -- 85
2019-10-17 19:00:00 18.8 2 Sur 9 Este 0 -- -- 72
2019-10-17 18:00:00 18.8 6 Este 11 Sudeste 0 -- -- 73
2019-10-17 17:00:00 18.4 4 Sur 14 Este 0 -- -- 75
2019-10-17 16:00:00 16.6 5 Nordeste 13 Nordeste 0 -- -- 81
2019-10-17 15:00:00 15.9 5 Este 10 Este 0 -- -- 83
2019-10-17 14:00:00 15.3 6 Este 10 Este 0 -- -- 85
2019-10-17 13:00:00 14.7 6 Este 16 Este 0 -- -- 84
2019-10-17 12:00:00 14.4 11 Este 19 Nordeste 0 -- -- 85
2019-10-17 11:00:00 11.6 10 Nordeste 18 Nordeste 1 -- -- 89
2019-10-17 10:00:00 11.6 9 Nordeste 15 Este 0.2 -- -- 82
2019-10-17 09:00:00 12.3 2 Nordeste 7 Nordeste 0 -- -- 76
2019-10-17 08:00:00 12.2 6 Este 9 Este 0 -- -- 72
2019-10-17 07:00:00 11.5 5 Sudeste 6 Sudeste 0 -- -- 74
2019-10-17 06:00:00 11.5 0 Calma 5 Sudeste 0 -- -- 71
2019-10-17 05:00:00 11.9 5 Sudeste 7 Sudeste 0 -- -- 70
2019-10-17 04:00:00 11.2 4 Nordeste 6 Norte 0 -- -- 74
2019-10-17 03:00:00 11.7 3 Este 7 Este 0 -- -- 71
2019-10-17 02:00:00 13 6 Este 7 Este 0 -- -- 65
2019-10-17 01:00:00 13.5 0 Calma 6 Noroeste 0 -- -- 65
2019-10-17 00:00:00 14.7 5 Noroeste 8 Noroeste 0 -- -- 58
2019-10-16 23:00:00 15 6 Noroeste 12 Noroeste 0 -- -- 55
2019-10-16 22:00:00 15.1 9 Noroeste 12 Noroeste 0 -- -- 54
2019-10-16 21:00:00 15.6 6 Noroeste 12 Oeste 0 -- -- 52
2019-10-16 20:00:00 16.5 8 Oeste 23 Sudoeste 0 -- -- 49
2019-10-16 19:00:00 19 16 Sudoeste 22 Sudoeste 0 -- -- 40
2019-10-16 18:00:00 19.2 13 Sudoeste 22 Sudoeste 0 -- -- 43
2019-10-16 17:00:00 19 6 Sudoeste 22 Sudoeste 0 -- -- 45
2019-10-16 16:00:00 19 10 Sudoeste 20 Sudoeste 0 -- -- 43
2019-10-16 15:00:00 18 6 Sudoeste 22 Oeste 0 -- -- 49
2019-10-16 14:00:00 17.4 9 Sudoeste 17 Sur 0 -- -- 53
2019-10-16 13:00:00 16.5 7 Sudeste 12 Sur 0 -- -- 60
2019-10-16 12:00:00 14.9 6 Sudeste 10 Sudeste 0 -- -- 64
2019-10-16 11:00:00 13.4 5 Sudeste 8 Sudeste 0 -- -- 70
2019-10-16 10:00:00 11.9 4 Este 6 Este 0 -- -- 72
2019-10-16 09:00:00 9.1 3 Este 5 Este 0 -- -- 80
2019-10-16 08:00:00 9 4 Nordeste 6 Nordeste 0 -- -- 79
2019-10-16 07:00:00 10.7 2 Sudoeste 8 Noroeste 0 -- -- 71
2019-10-16 06:00:00 10.1 4 Noroeste 8 Noroeste 0 -- -- 74
2019-10-16 05:00:00 9.9 3 Este 4 Nordeste 0 -- -- 77
2019-10-16 04:00:00 10.3 4 Nordeste 5 Nordeste 0 -- -- 74
2019-10-16 03:00:00 10.9 2 Este 7 Norte 0 -- -- 71
2019-10-16 02:00:00 11.2 6 Nordeste 8 Nordeste 0 -- -- 70
2019-10-16 01:00:00 10.7 8 Nordeste 10 Nordeste 0 -- -- 73
2019-10-16 00:00:00 12.2 4 Sudeste 7 Sudeste 0 -- -- 64
2019-10-15 23:00:00 12.9 3 Norte 7 Norte 0 -- -- 62
2019-10-15 22:00:00 13 6 Norte 8 Norte 0 -- -- 63
2019-10-15 21:00:00 14.1 8 Norte 8 Norte 0 -- -- 58
2019-10-15 20:00:00 15.1 8 Noroeste 23 Oeste 0 -- -- 53
2019-10-15 19:00:00 16.6 18 Noroeste 23 Oeste 0 -- -- 46
2019-10-15 18:00:00 17.7 16 Oeste 29 Noroeste 0 -- -- 43
2019-10-15 17:00:00 17.5 17 Noroeste 31 Noroeste 0 -- -- 43
2019-10-15 16:00:00 17.3 12 Oeste 27 Noroeste 0 -- -- 46
2019-10-15 15:00:00 16.4 12 Noroeste 23 Noroeste 0 -- -- 52
2019-10-15 14:00:00 15.5 14 Oeste 24 Oeste 0 -- -- 54
2019-10-15 13:00:00 14.4 12 Oeste 18 Sudoeste 0 -- -- 62
2019-10-15 12:00:00 12.8 10 Sudoeste 17 Oeste 0 -- -- 76
2019-10-15 11:00:00 11.1 8 Oeste 13 Oeste 0 -- -- 79
2019-10-15 10:00:00 8.9 6 Oeste 13 Oeste 0 -- -- 87
2019-10-15 09:00:00 7.3 8 Oeste 9 Oeste 0 -- -- 87
2019-10-15 08:00:00 7.3 6 Sudoeste 12 Oeste 0 -- -- 88
2019-10-15 07:00:00 7.3 6 Sudoeste 13 Sudoeste 0 -- -- 89
2019-10-15 06:00:00 7.3 5 Sur 19 Noroeste 0.2 -- -- 89
2019-10-15 05:00:00 8.1 18 Noroeste 22 Noroeste 0 -- -- 86
2019-10-15 04:00:00 8.2 14 Noroeste 17 Noroeste 0 -- -- 87
2019-10-15 03:00:00 8.8 13 Noroeste 25 Noroeste 0 -- -- 85
2019-10-15 02:00:00 9.3 21 Noroeste 28 Noroeste 0 -- -- 84
2019-10-15 01:00:00 10.1 20 Noroeste 27 Noroeste 0 -- -- 81
2019-10-15 00:00:00 10.8 5 Noroeste 13 Oeste 0 -- -- 87
2019-10-14 23:00:00 11.9 8 Oeste 11 Sudoeste 0 -- -- 94
2019-10-14 22:00:00 12.4 0 Calma 15 Sudoeste 0 -- -- 93
2019-10-14 21:00:00 12.9 13 Sudoeste 19 Sudoeste 0 -- -- 94
2019-10-14 20:00:00 13.3 8 Sudoeste 17 Sudoeste 0 -- -- 92
2019-10-14 19:00:00 13.4 4 Sudoeste 13 Sudoeste 0 -- -- 90
2019-10-14 18:00:00 12.8 3 Oeste 24 Oeste 1.4 -- -- 90
2019-10-14 17:00:00 12.8 17 Noroeste 42 Oeste 3 -- -- 89
2019-10-14 16:00:00 14.2 37 Oeste 58 Oeste 1.6 -- -- 83
2019-10-14 15:00:00 18.5 24 Sudoeste 38 Sudoeste 0 -- -- 55
2019-10-14 14:00:00 17.6 28 Sudoeste 37 Sudoeste 0 -- -- 57
2019-10-14 13:00:00 17.2 25 Sudoeste 37 Sudoeste 0 -- -- 61
2019-10-14 12:00:00 16.3 21 Sudoeste 29 Sudoeste 0 -- -- 69
2019-10-14 11:00:00 15.2 22 Sudoeste 29 Sudoeste 0 -- -- 83
2019-10-14 10:00:00 15.3 14 Sudoeste 35 Sudoeste 0 -- -- 90
2019-10-14 09:00:00 14.7 9 Sur 23 Sudoeste 0.2 -- -- 91
2019-10-14 08:00:00 15 12 Sudoeste 19 Sudeste 2 -- -- 87
2019-10-14 07:00:00 15.7 9 Oeste 31 Oeste 0 -- -- 78
2019-10-14 06:00:00 16.1 10 Oeste 17 Oeste 0 -- -- 73
2019-10-14 05:00:00 17.1 9 Sudoeste 19 Sudoeste 0 -- -- 60
2019-10-14 04:00:00 18.2 4 Este 12 Este 0 -- -- 53
2019-10-14 03:00:00 18.9 7 Este 10 Este 0 -- -- 52
2019-10-14 02:00:00 19.8 6 Sudeste 10 Sudeste 0 -- -- 51
2019-10-14 01:00:00 20.4 2 Este 8 Sudeste 0 -- -- 48
2019-10-14 00:00:00 21 6 Este 19 Este 0 -- -- 47
2019-10-13 23:00:00 22.6 13 Este 15 Nordeste 0 -- -- 43
2019-10-13 22:00:00 22.5 9 Nordeste 13 Nordeste 0 -- -- 44
2019-10-13 21:00:00 22.4 8 Nordeste 10 Este 0 -- -- 45
2019-10-13 20:00:00 23.8 6 Este 8 Este 0 -- -- 42
2019-10-13 19:00:00 25.2 3 Este 12 Sudeste 0 -- -- 39
2019-10-13 18:00:00 25.6 6 Sudeste 21 Sudeste 0 -- -- 39
2019-10-13 17:00:00 25 10 Sudeste 25 Sudeste 0 -- -- 41
2019-10-13 16:00:00 24 16 Sudeste 27 Sudeste 0 -- -- 44
2019-10-13 15:00:00 22.6 14 Este 30 Este 0 -- -- 49
2019-10-13 14:00:00 21.5 14 Sudeste 28 Sudeste 0 -- -- 51
2019-10-13 13:00:00 20.2 14 Sudeste 27 Sudeste 0 -- -- 56
2019-10-13 12:00:00 19.3 16 Sudeste 24 Sur 0 -- -- 59
2019-10-13 11:00:00 17.8 6 Sudeste 11 Sudeste 0 -- -- 64
2019-10-13 10:00:00 16.5 2 Sudeste 6 Sudeste 0 -- -- 68
2019-10-13 09:00:00 15.1 4 Este 5 Este 0 -- -- 73
2019-10-13 08:00:00 14.5 0 Calma 5 Este 0 -- -- 75
2019-10-13 07:00:00 14.9 2 Este 5 Nordeste 0 -- -- 75
2019-10-13 06:00:00 14.7 4 Sudeste 9 Sudoeste 0 -- -- 76
2019-10-13 05:00:00 15.6 3 Oeste 8 Oeste 0 -- -- 75
2019-10-13 04:00:00 15.9 8 Sudoeste 14 Sur 0 -- -- 72
2019-10-13 03:00:00 18.2 3 Sur 5 Sur 0 -- -- 62
2019-10-13 02:00:00 19.1 0 Calma 5 Sudeste 0 -- -- 58
2019-10-13 01:00:00 19.5 4 Este 10 Sudoeste 0 -- -- 51
2019-10-13 00:00:00 21.1 6 Sur 12 Sudoeste 0 -- -- 48
2019-10-12 23:00:00 22.3 9 Sudoeste 21 Sudoeste 0 -- -- 45
2019-10-12 22:00:00 24.2 14 Sudoeste 23 Sudoeste 0 -- -- 39
2019-10-12 21:00:00 25.6 13 Sudoeste 28 Sudoeste 0 -- -- 35
2019-10-12 20:00:00 26 9 Este 21 Este 0 -- -- 33
2019-10-12 19:00:00 26.8 13 Este 27 Este 0 -- -- 32
2019-10-12 18:00:00 26.8 16 Este 27 Este 0 -- -- 34
2019-10-12 17:00:00 25.8 17 Sudeste 51 Sur 0 -- -- 35
2019-10-12 16:00:00 29.5 10 Sur 24 Sur 0 -- -- 26
2019-10-12 15:00:00 28.9 14 Sudeste 27 Sudeste 0 -- -- 28
2019-10-12 14:00:00 28.3 19 Sudeste 27 Sudeste 0 -- -- 29
2019-10-12 13:00:00 27.1 13 Sudeste 31 Este 0 -- -- 31
2019-10-12 12:00:00 24.3 20 Este 34 Este 0 -- -- 38
2019-10-12 11:00:00 23.6 11 Este 23 Este 0 -- -- 37
2019-10-12 10:00:00 23.2 13 Este 22 Nordeste 0 -- -- 38
2019-10-12 09:00:00 22.1 18 Este 24 Nordeste 0 -- -- 40
2019-10-12 08:00:00 22.2 19 Este 27 Este 0 -- -- 40
2019-10-12 07:00:00 21.7 17 Nordeste 26 Este 0 -- -- 42
2019-10-12 06:00:00 23.1 14 Nordeste 30 Este 0 -- -- 38
2019-10-12 05:00:00 22.8 8 Este 18 Este 0 -- -- 39
2019-10-12 04:00:00 23.1 4 Este 16 Nordeste 0 -- -- 38
2019-10-12 03:00:00 23.3 14 Este 18 Este 0 -- -- 37
2019-10-12 02:00:00 23.2 12 Este 16 Este 0 -- -- 38
2019-10-12 01:00:00 23.4 12 Nordeste 14 Este 0 -- -- 39
2019-10-12 00:00:00 23.7 8 Este 12 Este 0 -- -- 37
2019-10-11 23:00:00 23.9 5 Sudeste 12 Sudeste 0 -- -- 39
2019-10-11 22:00:00 24.5 6 Sur 10 Sudoeste 0 -- -- 40
2019-10-11 21:00:00 25.3 6 Sur 13 Sudeste 0 -- -- 36
2019-10-11 20:00:00 26.8 6 Sudeste 12 Este 0 -- -- 33
2019-10-11 19:00:00 27.5 8 Sudeste 17 Sudeste 0 -- -- 32
2019-10-11 18:00:00 28 12 Sudeste 17 Sudeste 0 -- -- 31
2019-10-11 17:00:00 28.6 11 Sudeste 22 Sudeste 0 -- -- 31
2019-10-11 16:00:00 29.1 10 Sur 26 Sudeste 0 -- -- 32
2019-10-11 15:00:00 27.7 9 Sudeste 22 Sudeste 0 -- -- 36
2019-10-11 14:00:00 27.3 17 Sudeste 26 Este 0 -- -- 39
2019-10-11 13:00:00 25.9 13 Sudeste 25 Sudeste 0 -- -- 43
2019-10-11 12:00:00 25.5 14 Sudeste 24 Sudeste 0 -- -- 43
2019-10-11 11:00:00 23.5 17 Este 22 Este 0 -- -- 45
2019-10-11 10:00:00 22 14 Este 20 Este 0 -- -- 47
2019-10-11 09:00:00 20 9 Este 15 Nordeste 0 -- -- 50
2019-10-11 08:00:00 19.9 12 Nordeste 19 Este 0 -- -- 50
2019-10-11 07:00:00 19.8 15 Este 19 Este 0 -- -- 49
2019-10-11 06:00:00 21.5 13 Este 17 Este 0 -- -- 43
2019-10-11 05:00:00 21.9 10 Nordeste 17 Nordeste 0 -- -- 43
2019-10-11 04:00:00 21.9 14 Nordeste 18 Nordeste 0 -- -- 43
2019-10-11 03:00:00 22.8 10 Nordeste 17 Sudeste 0 -- -- 40
2019-10-11 02:00:00 22 10 Nordeste 13 Nordeste 0 -- -- 40
2019-10-11 01:00:00 22.2 9 Este 13 Este 0 -- -- 39
2019-10-11 00:00:00 23 0 Calma 10 Nordeste 0 -- -- 35
2019-10-10 23:00:00 24.5 7 Nordeste 10 Nordeste 0 -- -- 33
2019-10-10 22:00:00 25.2 11 Norte 13 Norte 0 -- -- 31
2019-10-10 21:00:00 25.2 8 Norte 9 Norte 0 -- -- 32
2019-10-10 20:00:00 28.7 0 Calma 3 Nordeste 0 -- -- 28
2019-10-10 19:00:00 30.2 4 Sudoeste 14 Oeste 0 -- -- 27
2019-10-10 18:00:00 30.9 5 Sur 15 Sudoeste 0 -- -- 26
2019-10-10 17:00:00 30.7 7 Sudoeste 21 Sudoeste 0 -- -- 26
2019-10-10 16:00:00 30.1 9 Oeste 21 Sudoeste 0 -- -- 27
2019-10-10 15:00:00 29.7 11 Sudeste 18 Sur 0 -- -- 22
2019-10-10 14:00:00 28.4 5 Sudeste 16 Sudeste 0 -- -- 20
2019-10-10 13:00:00 27 10 Sudeste 18 Sudeste 0 -- -- 25
2019-10-10 12:00:00 25.2 12 Sudeste 17 Sudeste 0 -- -- 27
2019-10-10 11:00:00 23.2 7 Este 12 Sudeste 0 -- -- 29
2019-10-10 10:00:00 20.3 6 Este 9 Este 0 -- -- 32
2019-10-10 09:00:00 16.8 7 Este 11 Nordeste 0 -- -- 37
2019-10-10 08:00:00 16.6 6 Este 10 Nordeste 0 -- -- 38
2019-10-10 07:00:00 15.7 5 Nordeste 8 Nordeste 0 -- -- 38
2019-10-10 06:00:00 16.3 3 Este 6 Sudoeste 0 -- -- 37
2019-10-10 05:00:00 17.6 5 Oeste 13 Nordeste 0 -- -- 37
2019-10-10 04:00:00 18 7 Este 9 Este 0 -- -- 32
2019-10-10 03:00:00 18.8 6 Norte 15 Norte 0 -- -- 35
2019-10-10 02:00:00 19.3 11 Norte 23 Noroeste 0 -- -- 35
2019-10-10 01:00:00 19.4 16 Noroeste 21 Noroeste 0 -- -- 35
2019-10-10 00:00:00 20.6 18 Noroeste 22 Noroeste 0 -- -- 27
2019-10-09 23:00:00 22 15 Noroeste 18 Noroeste 0 -- -- 23
2019-10-09 22:00:00 24.2 15 Norte 21 Noroeste 0 -- -- 18
2019-10-09 21:00:00 24.8 15 Noroeste 21 Noroeste 0 -- -- 19
2019-10-09 20:00:00 26.2 16 Noroeste 24 Noroeste 0 -- -- 21
2019-10-09 19:00:00 28.8 18 Noroeste 28 Noroeste 0 -- -- 20
2019-10-09 18:00:00 29.6 18 Noroeste 30 Noroeste 0 -- -- 24
2019-10-09 17:00:00 30.1 15 Noroeste 27 Oeste 0 -- -- 27
2019-10-09 16:00:00 30.1 18 Oeste 27 Oeste 0 -- -- 28
2019-10-09 15:00:00 28.9 10 Oeste 28 Oeste 0 -- -- 35
2019-10-09 14:00:00 27.3 15 Noroeste 27 Noroeste 0 -- -- 41
2019-10-09 13:00:00 26.3 13 Oeste 25 Oeste 0 -- -- 44
2019-10-09 12:00:00 23.8 4 Este 12 Este 0 -- -- 45
2019-10-09 11:00:00 21.2 4 Nordeste 13 Este 0 -- -- 50
2019-10-09 10:00:00 19.5 6 Este 24 Noroeste 0 -- -- 51
2019-10-09 09:00:00 17.8 21 Noroeste 26 Noroeste 0 -- -- 66
2019-10-09 08:00:00 17.4 3 Nordeste 10 Norte 0 -- -- 51
2019-10-09 07:00:00 18.2 6 Norte 14 Norte 0 -- -- 48
2019-10-09 06:00:00 19.7 6 Noroeste 18 Noroeste 0 -- -- 52
2019-10-09 05:00:00 19.1 13 Noroeste 18 Noroeste 0 -- -- 53
2019-10-09 04:00:00 21.1 3 Nordeste 6 Nordeste 0 -- -- 43
2019-10-09 03:00:00 21.9 4 Sur 12 Noroeste 0 -- -- 38
2019-10-09 02:00:00 22.8 14 Noroeste 25 Noroeste 0 -- -- 37
2019-10-09 01:00:00 23.5 13 Noroeste 27 Noroeste 0 -- -- 34
2019-10-09 00:00:00 25.2 10 Noroeste 15 Noroeste 0 -- -- 30
2019-10-08 23:00:00 25.9 5 Noroeste 14 Norte 0 -- -- 28
2019-10-08 22:00:00 25.7 10 Norte 15 Norte 0 -- -- 29
2019-10-08 21:00:00 26.4 3 Noroeste 6 Sur 0 -- -- 28
2019-10-08 20:00:00 29.8 6 Sur 12 Sur 0 -- -- 25
2019-10-08 19:00:00 31.7 8 Sudoeste 14 Sudeste 0 -- -- 22
2019-10-08 18:00:00 32.3 8 Sudeste 16 Sudeste 0 -- -- 22
2019-10-08 17:00:00 32.4 7 Sur 18 Sur 0 -- -- 22
2019-10-08 16:00:00 32 8 Sudoeste 20 Sudoeste 0 -- -- 22
2019-10-08 15:00:00 31.4 11 Sur 21 Sudoeste 0 -- -- 23
2019-10-08 14:00:00 30.2 9 Sur 19 Sur 0 -- -- 25
2019-10-08 13:00:00 29.3 11 Sudeste 21 Sur 0 -- -- 27
2019-10-08 12:00:00 27.5 15 Sudeste 21 Sudeste 0 -- -- 30
2019-10-08 11:00:00 25.4 9 Sur 12 Sur 0 -- -- 32
2019-10-08 10:00:00 22.6 2 Oeste 5 Noroeste 0 -- -- 36
2019-10-08 09:00:00 21.9 5 Este 17 Este 0 -- -- 37
2019-10-08 08:00:00 21.2 13 Este 16 Este 0 -- -- 37
2019-10-08 07:00:00 19.3 4 Norte 10 Noroeste 0 -- -- 40
2019-10-08 06:00:00 20.1 7 Este 11 Este 0 -- -- 39
2019-10-08 05:00:00 21.2 2 Sudoeste 12 Nordeste 0 -- -- 37
2019-10-08 04:00:00 21.5 9 Nordeste 13 Nordeste 0 -- -- 36
2019-10-08 03:00:00 23.5 11 Nordeste 17 Este 0 -- -- 32
2019-10-08 02:00:00 22.7 8 Nordeste 17 Nordeste 0 -- -- 33
2019-10-08 01:00:00 24.6 5 Norte 17 Norte 0 -- -- 31
2019-10-08 00:00:00 25.1 10 Nordeste 14 Norte 0 -- -- 30
2019-10-07 23:00:00 24.1 6 Noroeste 9 Noroeste 0 -- -- 29
2019-10-07 22:00:00 24.3 6 Norte 8 Norte 0 -- -- 29
2019-10-07 21:00:00 25.7 6 Oeste 9 Oeste 0 -- -- 27
2019-10-07 20:00:00 28.3 4 Oeste 9 Noroeste 0 -- -- 24
2019-10-07 19:00:00 29.7 5 Oeste 15 Sudoeste 0 -- -- 23
2019-10-07 18:00:00 30.9 14 Sudoeste 21 Sudoeste 0 -- -- 22
2019-10-07 17:00:00 31.2 9 Sudoeste 22 Sudoeste 0 -- -- 22
2019-10-07 16:00:00 30.4 11 Sudoeste 17 Sudoeste 0 -- -- 23
2019-10-07 15:00:00 29.4 7 Oeste 16 Sudoeste 0 -- -- 24
2019-10-07 14:00:00 28.6 10 Sur 18 Sur 0 -- -- 25
2019-10-07 13:00:00 27.4 11 Sudeste 19 Sudeste 0 -- -- 26
2019-10-07 12:00:00 25.6 10 Sudeste 16 Sudeste 0 -- -- 29
2019-10-07 11:00:00 22.3 10 Este 16 Este 0 -- -- 35
2019-10-07 10:00:00 19.6 3 Sudeste 6 Sur 0 -- -- 40
2019-10-07 09:00:00 17.2 0 Calma 7 Norte 0 -- -- 44
2019-10-07 08:00:00 17.4 0 Calma 8 Nordeste 0 -- -- 42
2019-10-07 07:00:00 17.9 7 Nordeste 13 Nordeste 0 -- -- 42
2019-10-07 06:00:00 18.5 10 Nordeste 14 Nordeste 0 -- -- 40
2019-10-07 05:00:00 17.9 10 Nordeste 14 Nordeste 0 -- -- 41
2019-10-07 04:00:00 18.7 10 Nordeste 21 Noroeste 0 -- -- 39
2019-10-07 03:00:00 20.7 16 Noroeste 21 Noroeste 0 -- -- 35
2019-10-07 02:00:00 19.8 10 Noroeste 17 Noroeste 0 -- -- 36
2019-10-07 01:00:00 20.6 12 Noroeste 14 Noroeste 0 -- -- 35
2019-10-07 00:00:00 22 9 Noroeste 18 Noroeste 0 -- -- 32
2019-10-06 23:00:00 22.7 14 Noroeste 18 Noroeste 0 -- -- 31
2019-10-06 22:00:00 22.2 13 Noroeste 18 Noroeste 0 -- -- 32
2019-10-06 21:00:00 23.6 13 Noroeste 21 Noroeste 0 -- -- 31
2019-10-06 20:00:00 26.7 16 Oeste 25 Oeste 0 -- -- 25
2019-10-06 19:00:00 28.7 18 Noroeste 26 Noroeste 0 -- -- 23
2019-10-06 18:00:00 29.2 19 Noroeste 30 Oeste 0 -- -- 22
2019-10-06 17:00:00 29 18 Oeste 28 Oeste 0 -- -- 21
2019-10-06 16:00:00 28.7 18 Oeste 30 Oeste 0 -- -- 21
2019-10-06 15:00:00 27.1 14 Sudoeste 24 Sudoeste 0 -- -- 29
2019-10-06 14:00:00 25.2 9 Sudoeste 17 Sudoeste 0 -- -- 35
2019-10-06 13:00:00 22.7 6 Oeste 12 Sudoeste 0 -- -- 40
2019-10-06 12:00:00 20.6 6 Este 14 Sudeste 0 -- -- 46
2019-10-06 11:00:00 18.2 10 Este 14 Sudeste 0 -- -- 51
2019-10-06 10:00:00 16.1 5 Este 8 Este 0 -- -- 58
2019-10-06 09:00:00 13 0 Calma 5 Sudeste 0 -- -- 65
2019-10-06 08:00:00 13.2 5 Nordeste 12 Norte 0 -- -- 64
2019-10-06 07:00:00 13.9 7 Nordeste 11 Nordeste 0 -- -- 62
2019-10-06 06:00:00 14.6 9 Nordeste 10 Nordeste 0 -- -- 58
2019-10-06 05:00:00 14.8 3 Nordeste 11 Norte 0 -- -- 58
2019-10-06 04:00:00 17.4 8 Este 23 Noroeste 0 -- -- 52
2019-10-06 03:00:00 18.3 17 Noroeste 24 Noroeste 0 -- -- 52
2019-10-06 02:00:00 20.3 19 Noroeste 30 Noroeste 0 -- -- 47
2019-10-06 01:00:00 20.8 22 Noroeste 28 Noroeste 0 -- -- 46
2019-10-06 00:00:00 20.9 11 Noroeste 14 Noroeste 0 -- -- 36
2019-10-05 23:00:00 18.8 4 Noroeste 5 Noroeste 0 -- -- 38
2019-10-05 22:00:00 19.9 0 Calma 8 Sudoeste 0 -- -- 35
2019-10-05 21:00:00 21.9 6 Sur 16 Sudoeste 0 -- -- 32
2019-10-05 20:00:00 24.4 12 Sudoeste 22 Sudoeste 0 -- -- 25
2019-10-05 19:00:00 26.7 14 Sur 23 Sudoeste 0 -- -- 28
2019-10-05 18:00:00 27.1 13 Sudoeste 22 Sudoeste 0 -- -- 34
2019-10-05 17:00:00 27.3 13 Sudoeste 24 Sudoeste 0 -- -- 34
2019-10-05 16:00:00 26.5 12 Sudoeste 23 Sur 0 -- -- 37
2019-10-05 15:00:00 25.7 17 Sudoeste 28 Sudoeste 0 -- -- 41
2019-10-05 14:00:00 24.3 12 Sudoeste 18 Sudoeste 0 -- -- 46
2019-10-05 13:00:00 22.3 9 Sudoeste 15 Sudoeste 0 -- -- 49
2019-10-05 12:00:00 20.8 7 Sur 14 Sudeste 0 -- -- 55
2019-10-05 11:00:00 18.4 8 Este 12 Este 0 -- -- 64
2019-10-05 10:00:00 15.8 8 Sudeste 11 Este 0 -- -- 74
2019-10-05 09:00:00 13.9 8 Este 12 Este 0 -- -- 79
2019-10-05 08:00:00 13.7 5 Este 13 Este 0 -- -- 77
2019-10-05 07:00:00 13.9 6 Este 9 Sudeste 0 -- -- 82
2019-10-05 06:00:00 14.8 5 Sudeste 8 Sur 0 -- -- 76
2019-10-05 05:00:00 17 5 Norte 14 Noroeste 0 -- -- 67
2019-10-05 04:00:00 16.5 12 Noroeste 17 Noroeste 0 -- -- 70
2019-10-05 03:00:00 18 14 Noroeste 28 Noroeste 0 -- -- 65
2019-10-05 02:00:00 19.8 21 Noroeste 26 Noroeste 0 -- -- 59
2019-10-05 01:00:00 20.1 18 Noroeste 22 Noroeste 0 -- -- 57
2019-10-05 00:00:00 19.6 0 Calma 4 Oeste 0 -- -- 53
2019-10-04 23:00:00 19.5 2 Noroeste -- -- 0 -- -- 53
2019-10-04 22:00:00 21.2 2 Oeste 10 Sudoeste 0 -- -- 48
2019-10-04 21:00:00 22.6 9 Sudoeste 15 Sudoeste 0 -- -- 45
2019-10-04 20:00:00 24.4 11 Sudoeste 21 Sudoeste 0 -- -- 42
2019-10-04 19:00:00 26.4 15 Sudoeste 28 Sur 0 -- -- 39
2019-10-04 18:00:00 27.5 14 Sur 24 Sudoeste 0 -- -- 35
2019-10-04 17:00:00 27.7 12 Sudoeste 22 Oeste 0 -- -- 34
2019-10-04 16:00:00 26.7 10 Sudoeste 21 Sudoeste 0 -- -- 38
2019-10-04 15:00:00 25.5 11 Sudoeste 20 Sudoeste 0 -- -- 42
2019-10-04 14:00:00 23.7 9 Sudoeste 28 Oeste 0 -- -- 50
2019-10-04 13:00:00 22.4 4 Sudoeste 15 Sudeste 0 -- -- 53
2019-10-04 12:00:00 21 8 Sudeste 14 Sur 0 -- -- 58
2019-10-04 11:00:00 18.7 9 Este 21 Este 0 -- -- 65
2019-10-04 10:00:00 16.6 15 Este 23 Este 0 -- -- 70
2019-10-04 09:00:00 14.8 10 Este 16 Este 0 -- -- 69
2019-10-04 08:00:00 14.1 10 Este 16 Nordeste 0 -- -- 67
2019-10-04 07:00:00 15 12 Nordeste 24 Nordeste 0 -- -- 56
2019-10-04 06:00:00 15.2 10 Nordeste 15 Nordeste 0 -- -- 52
2019-10-04 05:00:00 15.7 6 Nordeste 11 Noroeste 0 -- -- 51
2019-10-04 04:00:00 16.9 7 Noroeste 18 Oeste 0 -- -- 62
2019-10-04 03:00:00 18 10 Oeste 24 Noroeste 0 -- -- 57
2019-10-04 02:00:00 19.8 22 Noroeste 29 Noroeste 0 -- -- 48
2019-10-04 01:00:00 20 18 Noroeste 26 Noroeste 0 -- -- 41
2019-10-04 00:00:00 21.3 9 Noroeste 13 Noroeste 0 -- -- 31
2019-10-03 23:00:00 20.6 5 Noroeste 8 Noroeste 0 -- -- 31
2019-10-03 22:00:00 22.6 7 Norte 10 Noroeste 0 -- -- 28
2019-10-03 21:00:00 23.6 8 Noroeste 18 Oeste 0 -- -- 27
2019-10-03 20:00:00 26 15 Oeste 26 Oeste 0 -- -- 23
2019-10-03 19:00:00 27.5 18 Noroeste 30 Noroeste 0 -- -- 21
2019-10-03 18:00:00 28.4 22 Noroeste 32 Oeste 0 -- -- 19
2019-10-03 17:00:00 28.1 19 Oeste 29 Noroeste 0 -- -- 21
2019-10-03 16:00:00 26.9 20 Noroeste 32 Noroeste 0 -- -- 23
2019-10-03 15:00:00 26.3 15 Noroeste 27 Noroeste 0 -- -- 24
2019-10-03 14:00:00 24.9 8 Sudoeste 23 Sudoeste 0 -- -- 30
2019-10-03 13:00:00 23 7 Oeste 19 Oeste 0 -- -- 33
2019-10-03 12:00:00 21 7 Sudoeste 13 Sudoeste 0 -- -- 37
2019-10-03 11:00:00 18.8 9 Oeste 15 Noroeste 0 -- -- 42
2019-10-03 10:00:00 16.2 6 Oeste 9 Oeste 0 -- -- 48
2019-10-03 09:00:00 14 2 Oeste 10 Nordeste 0 -- -- 52
2019-10-03 08:00:00 13.2 8 Nordeste 15 Noroeste 0 -- -- 53
2019-10-03 07:00:00 13.3 0 Calma 6 Norte 0 -- -- 51
2019-10-03 06:00:00 14.7 3 Noroeste 5 Nordeste 0 -- -- 49
2019-10-03 05:00:00 15.8 4 Norte 8 Oeste 0 -- -- 45
2019-10-03 04:00:00 16.6 8 Norte 15 Norte 0 -- -- 43
2019-10-03 03:00:00 15.7 11 Norte 15 Oeste 0 -- -- 45
2019-10-03 02:00:00 16 14 Oeste 16 Oeste 0 -- -- 44
2019-10-03 01:00:00 16.9 6 Noroeste 8 Noroeste 0 -- -- 41
2019-10-03 00:00:00 18.7 3 Oeste 7 Noroeste 0 -- -- 37
2019-10-02 23:00:00 20.2 4 Noroeste 15 Noroeste 0 -- -- 34
2019-10-02 22:00:00 20.7 3 Sudoeste 11 Noroeste 0 -- -- 32
2019-10-02 21:00:00 21.9 8 Noroeste 25 Oeste 0 -- -- 31
2019-10-02 20:00:00 24.2 18 Oeste 37 Noroeste 0 -- -- 28
2019-10-02 19:00:00 26 27 Noroeste 38 Noroeste 0 -- -- 24
2019-10-02 18:00:00 26.9 25 Noroeste 37 Oeste 0 -- -- 22
2019-10-02 17:00:00 27.1 25 Noroeste 42 Oeste 0 -- -- 22
2019-10-02 16:00:00 26.5 25 Noroeste 36 Oeste 0 -- -- 24
2019-10-02 15:00:00 25.9 23 Noroeste 39 Noroeste 0 -- -- 24
2019-10-02 14:00:00 24.6 22 Noroeste 33 Oeste 0 -- -- 27
2019-10-02 13:00:00 22.5 21 Noroeste 34 Oeste 0 -- -- 34
2019-10-02 12:00:00 19.7 19 Oeste 28 Oeste 0 -- -- 43
2019-10-02 11:00:00 17.2 18 Oeste 27 Oeste 0 -- -- 56
2019-10-02 10:00:00 15 15 Oeste 20 Oeste 0 -- -- 66
2019-10-02 09:00:00 12.4 11 Noroeste 30 Noroeste 0 -- -- 78
2019-10-02 08:00:00 13 20 Noroeste 30 Noroeste 0 -- -- 76
2019-10-02 07:00:00 13.2 18 Oeste 23 Oeste 0 -- -- 75
2019-10-02 06:00:00 13.6 19 Noroeste 24 Oeste 0 -- -- 74
2019-10-02 05:00:00 14 17 Oeste 22 Oeste 0 -- -- 72
2019-10-02 04:00:00 14.6 19 Oeste 26 Oeste 0 -- -- 70
2019-10-02 03:00:00 15.8 22 Noroeste 27 Noroeste 0 -- -- 65
2019-10-02 02:00:00 17.2 14 Oeste 20 Oeste 0 -- -- 59
2019-10-02 01:00:00 17.9 9 Oeste 24 Noroeste 0 -- -- 54
2019-10-02 00:00:00 19.4 21 Oeste 30 Oeste 0 -- -- 49
2019-10-01 23:00:00 20.5 26 Noroeste 35 Noroeste 0 -- -- 46
2019-10-01 22:00:00 20.6 21 Noroeste 25 Noroeste 0 -- -- 45
2019-10-01 21:00:00 21.6 8 Noroeste 21 Noroeste 0 -- -- 42
2019-10-01 20:00:00 24.3 20 Noroeste 37 Noroeste 0 -- -- 37
2019-10-01 19:00:00 25.7 27 Noroeste 49 Oeste 0 -- -- 36
2019-10-01 18:00:00 26.4 31 Oeste 46 Oeste 0 -- -- 35
2019-10-01 17:00:00 26.7 31 Oeste 43 Noroeste 0 -- -- 38
2019-10-01 16:00:00 26.2 28 Noroeste 44 Noroeste 0 -- -- 37
2019-10-01 15:00:00 24.8 28 Noroeste 41 Noroeste 0 -- -- 39
2019-10-01 14:00:00 24.2 22 Noroeste 35 Oeste 0 -- -- 46
2019-10-01 13:00:00 22.3 18 Oeste 32 Oeste 0 -- -- 53
2019-10-01 12:00:00 20.8 21 Noroeste 30 Oeste 0 -- -- 61
2019-10-01 11:00:00 19.1 20 Noroeste 29 Noroeste 0 -- -- 68
2019-10-01 10:00:00 15.8 12 Sudoeste 16 Sudoeste 0 -- -- 79
2019-10-01 09:00:00 15.2 0 Calma 6 Sudoeste 0 -- -- 67
2019-10-01 08:00:00 15.1 3 Sur 11 Noroeste 0 -- -- 61
2019-10-01 07:00:00 18 8 Noroeste 13 Noroeste 0 -- -- 64
2019-10-01 06:00:00 17.4 9 Oeste 15 Noroeste 0 -- -- 47
2019-10-01 05:00:00 19.5 10 Oeste 16 Noroeste 0 -- -- 46
2019-10-01 04:00:00 20.6 12 Noroeste 17 Noroeste 0 -- -- 42
2019-10-01 03:00:00 20 13 Noroeste 15 Noroeste 0 -- -- 38
2019-10-01 02:00:00 20.1 12 Oeste 26 Noroeste 0 -- -- 32
2019-10-01 01:00:00 23.7 13 Noroeste 19 Noroeste 0 -- -- 26
2019-10-01 00:00:00 24.3 14 Noroeste 17 Noroeste 0 -- -- 21
2019-09-30 23:00:00 24.9 12 Noroeste 14 Noroeste 0 -- -- 20
2019-09-30 22:00:00 25.2 11 Noroeste 15 Noroeste 0 -- -- 23
2019-09-30 21:00:00 26.2 12 Noroeste 15 Oeste 0 -- -- 23
2019-09-30 20:00:00 29.1 9 Oeste 17 Oeste 0 -- -- 18
2019-09-30 19:00:00 31.4 6 Sudoeste 22 Sudoeste 0 -- -- 18
2019-09-30 18:00:00 31.5 15 Sudoeste 25 Sudoeste 0 -- -- 17
2019-09-30 17:00:00 31.4 10 Sur 22 Sudoeste 0 -- -- 18
2019-09-30 16:00:00 31.2 13 Sur 24 Sudoeste 0 -- -- 19
2019-09-30 15:00:00 30.1 11 Sur 18 Sur 0 -- -- 19
2019-09-30 14:00:00 28.8 9 Sur 17 Sur 0 -- -- 19
2019-09-30 13:00:00 27.1 9 Sudeste 14 Sudeste 0 -- -- 22
2019-09-30 12:00:00 24.8 8 Sudeste 17 Sudeste 0 -- -- 26
2019-09-30 11:00:00 22.1 12 Este 15 Sudeste 0 -- -- 31
2019-09-30 10:00:00 19.9 10 Sudeste 13 Este 0 -- -- 34
2019-09-30 09:00:00 18.3 6 Nordeste 14 Nordeste 0 -- -- 35
2019-09-30 08:00:00 17.6 10 Este 14 Este 0 -- -- 34
2019-09-30 07:00:00 17.1 7 Este 9 Este 0 -- -- 33
2019-09-30 06:00:00 17.9 5 Este 10 Nordeste 0 -- -- 32
2019-09-30 05:00:00 19 4 Este 10 Nordeste 0 -- -- 29
2019-09-30 04:00:00 19.4 5 Nordeste 15 Noroeste 0 -- -- 27
2019-09-30 03:00:00 21.3 15 Noroeste 18 Noroeste 0 -- -- 24
2019-09-30 02:00:00 20.8 13 Noroeste 14 Noroeste 0 -- -- 24
2019-09-30 01:00:00 20.7 0 Calma 7 Sudoeste 0 -- -- 24
2019-09-30 00:00:00 23.3 4 Sudeste 17 Norte 0 -- -- 21
2019-09-29 23:00:00 25.6 13 Norte 18 Norte 0 -- -- 18
2019-09-29 22:00:00 26.1 14 Norte 19 Norte 0 -- -- 17
2019-09-29 21:00:00 25.8 11 Norte 14 Noroeste 0 -- -- 21
2019-09-29 20:00:00 28.6 11 Noroeste 21 Noroeste 0 -- -- 21
2019-09-29 19:00:00 31.2 14 Oeste 24 Oeste 0 -- -- 19
2019-09-29 18:00:00 31.9 14 Sudoeste 34 Sudoeste 0 -- -- 18
2019-09-29 17:00:00 32 13 Sudoeste 26 Sur 0 -- -- 19
2019-09-29 16:00:00 31.2 12 Sudoeste 26 Sudoeste 0 -- -- 20
2019-09-29 15:00:00 30.6 11 Sudoeste 23 Sur 0 -- -- 21
2019-09-29 14:00:00 29 10 Sudoeste 17 Sudoeste 0 -- -- 24
2019-09-29 13:00:00 27 7 Sur 14 Sudeste 0 -- -- 26
2019-09-29 12:00:00 25 9 Sudeste 17 Sudeste 0 -- -- 30
2019-09-29 11:00:00 22.4 14 Este 19 Este 0 -- -- 34
2019-09-29 10:00:00 19.6 11 Este 17 Este 0 -- -- 39
2019-09-29 09:00:00 18.2 9 Nordeste 12 Nordeste 0 -- -- 37
2019-09-29 08:00:00 16.9 5 Nordeste 9 Noroeste 0 -- -- 36
2019-09-29 07:00:00 17.6 6 Nordeste 12 Este 0 -- -- 35
2019-09-29 06:00:00 19.2 9 Este 12 Este 0 -- -- 31
2019-09-29 05:00:00 19.4 4 Norte 7 Este 0 -- -- 31
2019-09-29 04:00:00 21.1 8 Este 13 Nordeste 0 -- -- 27
2019-09-29 03:00:00 22.1 10 Nordeste 14 Nordeste 0 -- -- 25
2019-09-29 02:00:00 21.1 9 Nordeste 12 Nordeste 0 -- -- 28
2019-09-29 01:00:00 21.7 3 Noroeste 8 Norte 0 -- -- 27
2019-09-29 00:00:00 22.3 0 Calma 4 Sudeste 0 -- -- 25
2019-09-28 23:00:00 23.1 4 Noroeste 8 Norte 0 -- -- 25
2019-09-28 22:00:00 23.5 6 Norte 11 Nordeste 0 -- -- 23
2019-09-28 21:00:00 24.8 8 Nordeste 10 Nordeste 0 -- -- 22
2019-09-28 20:00:00 29.6 4 Norte 5 Noroeste 0 -- -- 18
2019-09-28 19:00:00 31 2 Sudeste 13 Sudoeste 0 -- -- 17
2019-09-28 18:00:00 31.3 6 Oeste 14 Sudoeste 0 -- -- 17
2019-09-28 17:00:00 31.1 12 Oeste 25 Sudoeste 0 -- -- 18
2019-09-28 16:00:00 30.9 8 Sudoeste 21 Sudoeste 0 -- -- 19
2019-09-28 15:00:00 29.8 6 Sur 17 Sur 0 -- -- 20
2019-09-28 14:00:00 29.1 6 Sur 16 Sudeste 0 -- -- 21
2019-09-28 13:00:00 27.5 8 Sur 14 Sudoeste 0 -- -- 25
2019-09-28 12:00:00 25.6 8 Sudeste 14 Este 0 -- -- 26
2019-09-28 11:00:00 22.8 11 Este 16 Este 0 -- -- 29
2019-09-28 10:00:00 20.5 9 Este 14 Este 0 -- -- 34
2019-09-28 09:00:00 16.2 2 Nordeste 7 Sudeste 0 -- -- 42
2019-09-28 08:00:00 15.9 5 Sudeste 6 Sudeste 0 -- -- 41
2019-09-28 07:00:00 17.1 0 Calma 8 Norte 0 -- -- 41
2019-09-28 06:00:00 16.2 6 Nordeste 8 Norte 0 -- -- 41
2019-09-28 05:00:00 17.1 3 Este 5 Norte 0 -- -- 41
2019-09-28 04:00:00 18.7 0 Calma 9 Noroeste 0 -- -- 37
2019-09-28 03:00:00 19.6 6 Norte 12 Noroeste 0 -- -- 37
2019-09-28 02:00:00 18.7 9 Noroeste 13 Oeste 0 -- -- 34
2019-09-28 01:00:00 20.2 5 Sudeste 10 Sudeste 0 -- -- 29
2019-09-28 00:00:00 23.1 6 Noroeste 18 Norte 0 -- -- 27
2019-09-27 23:00:00 24.2 14 Norte 19 Norte 0 -- -- 24
2019-09-27 22:00:00 24.5 15 Norte 21 Norte 0 -- -- 22
2019-09-27 21:00:00 25.3 14 Norte 17 Norte 0 -- -- 21
2019-09-27 20:00:00 27.3 13 Noroeste 23 Noroeste 0 -- -- 19
2019-09-27 19:00:00 29.3 18 Noroeste 33 Noroeste 0 -- -- 20
2019-09-27 18:00:00 29.9 18 Noroeste 35 Oeste 0 -- -- 21
2019-09-27 17:00:00 30.1 14 Oeste 30 Noroeste 0 -- -- 22
2019-09-27 16:00:00 29.6 18 Noroeste 29 Noroeste 0 -- -- 24
2019-09-27 15:00:00 29 11 Oeste 25 Oeste 0 -- -- 25
2019-09-27 14:00:00 28.7 14 Sudoeste 26 Sudoeste 0 -- -- 27
2019-09-27 13:00:00 26.4 12 Sudoeste 19 Oeste 0 -- -- 33
2019-09-27 12:00:00 24.2 8 Oeste 13 Oeste 0 -- -- 37
2019-09-27 11:00:00 22 5 Este 13 Este 0 -- -- 43
2019-09-27 10:00:00 19.3 10 Este 17 Este 0 -- -- 50
2019-09-27 09:00:00 16.9 7 Este 9 Este 0 -- -- 56
2019-09-27 08:00:00 16.4 5 Este 7 Este 0 -- -- 56
2019-09-27 07:00:00 16.3 6 Este 8 Este 0 -- -- 55
2019-09-27 06:00:00 16.9 5 Norte 12 Noroeste 0 -- -- 52
2019-09-27 05:00:00 17.5 4 Este 7 Sudeste 0 -- -- 51
2019-09-27 04:00:00 19 0 Calma 13 Noroeste 0 -- -- 47
2019-09-27 03:00:00 20.6 13 Noroeste 20 Noroeste 0 -- -- 44
2019-09-27 02:00:00 20.5 4 Sudeste 8 Sudeste 0 -- -- 44
2019-09-27 01:00:00 23.1 0 Calma 9 Norte 0 -- -- 39
2019-09-27 00:00:00 23.3 9 Norte 12 Noroeste 0 -- -- 38
2019-09-26 23:00:00 23.4 5 Norte 7 Norte 0 -- -- 37
2019-09-26 22:00:00 22.7 3 Norte 8 Oeste 0 -- -- 38
2019-09-26 21:00:00 25.6 4 Oeste 14 Sudoeste 0 -- -- 33
2019-09-26 20:00:00 27.1 12 Sudoeste 17 Sudoeste 0 -- -- 30
2019-09-26 19:00:00 28.9 8 Sudoeste 16 Sudoeste 0 -- -- 28
2019-09-26 18:00:00 29.5 6 Sudoeste 16 Sudoeste 0 -- -- 26
2019-09-26 17:00:00 29 5 Sur 23 Oeste 0 -- -- 27
2019-09-26 16:00:00 28.4 7 Sur 21 Sudoeste 0 -- -- 29
2019-09-26 15:00:00 27.5 9 Sur 17 Sur 0 -- -- 31
2019-09-26 14:00:00 26 7 Sudeste 15 Sudeste 0 -- -- 34
2019-09-26 13:00:00 24.8 8 Sur 13 Sudeste 0 -- -- 37
2019-09-26 12:00:00 22.9 8 Sudeste 14 Sudeste 0 -- -- 44
2019-09-26 11:00:00 20.9 9 Sudeste 14 Sudeste 0 -- -- 47
2019-09-26 10:00:00 18.1 9 Este 14 Este 0 -- -- 54
2019-09-26 09:00:00 16.2 5 Norte 13 Este 0 -- -- 59
2019-09-26 08:00:00 15.1 4 Este 8 Este 0 -- -- 60
2019-09-26 07:00:00 15.8 3 Noroeste 5 Nordeste 0 -- -- 58
2019-09-26 06:00:00 16.5 0 Calma 15 Noroeste 0 -- -- 54
2019-09-26 05:00:00 17.5 13 Norte 21 Noroeste 0 -- -- 54
2019-09-26 04:00:00 17.1 18 Noroeste 26 Noroeste 0 -- -- 53
2019-09-26 03:00:00 18.2 22 Noroeste 27 Noroeste 0 -- -- 51
2019-09-26 02:00:00 19.4 18 Noroeste 21 Noroeste 0 -- -- 45
2019-09-26 01:00:00 18.9 15 Noroeste 19 Noroeste 0 -- -- 47
2019-09-26 00:00:00 20.1 10 Noroeste 17 Noroeste 0 -- -- 44
2019-09-25 23:00:00 20.4 13 Noroeste 15 Noroeste 0 -- -- 44
2019-09-25 22:00:00 20 10 Noroeste 15 Noroeste 0 -- -- 44
2019-09-25 21:00:00 22.1 13 Noroeste 24 Oeste 0 -- -- 39
2019-09-25 20:00:00 24.6 20 Noroeste 28 Oeste 0 -- -- 33
2019-09-25 19:00:00 26 19 Noroeste 34 Oeste 0 -- -- 31
2019-09-25 18:00:00 26.7 20 Noroeste 32 Oeste 0 -- -- 31
2019-09-25 17:00:00 26.3 19 Noroeste 32 Noroeste 0 -- -- 31
2019-09-25 16:00:00 25.5 13 Noroeste 34 Noroeste 0 -- -- 36
2019-09-25 15:00:00 24.4 15 Noroeste 32 Oeste 0 -- -- 41
2019-09-25 14:00:00 23 20 Noroeste 31 Noroeste 0 -- -- 44
2019-09-25 13:00:00 21.6 15 Noroeste 29 Noroeste 0 -- -- 47
2019-09-25 12:00:00 19.3 19 Noroeste 33 Noroeste 0 -- -- 55
2019-09-25 11:00:00 17.5 24 Noroeste 38 Noroeste 0 -- -- 60
2019-09-25 10:00:00 15.6 26 Noroeste 35 Noroeste 0 -- -- 71
2019-09-25 09:00:00 14.4 22 Noroeste 33 Noroeste 0 -- -- 78
2019-09-25 08:00:00 14 24 Noroeste 33 Noroeste 0 -- -- 81
2019-09-25 07:00:00 13.9 15 Noroeste 24 Noroeste 0 -- -- 83
2019-09-25 06:00:00 14.7 16 Noroeste 22 Noroeste 0 -- -- 79
2019-09-25 05:00:00 15.2 14 Noroeste 23 Noroeste 0 -- -- 77
2019-09-25 04:00:00 15.6 5 Noroeste 23 Noroeste 0 -- -- 75
2019-09-25 03:00:00 16.6 16 Noroeste 30 Noroeste 0 -- -- 73
2019-09-25 02:00:00 17.7 16 Oeste 30 Noroeste 0 -- -- 75
2019-09-25 01:00:00 19.6 26 Noroeste 39 Oeste 0 -- -- 70
2019-09-25 00:00:00 20.5 15 Noroeste 22 Noroeste 0 -- -- 73
2019-09-24 23:00:00 21 14 Noroeste 33 Oeste 0 -- -- 73
2019-09-24 22:00:00 22.1 26 Noroeste 36 Oeste 0 -- -- 68
2019-09-24 21:00:00 23 27 Noroeste 36 Noroeste 0 -- -- 64
2019-09-24 20:00:00 23.8 26 Noroeste 38 Noroeste 0 -- -- 61
2019-09-24 19:00:00 25.3 26 Noroeste 35 Oeste 0 -- -- 56
2019-09-24 18:00:00 27.3 24 Noroeste 37 Noroeste 0 -- -- 48
2019-09-24 17:00:00 26.9 24 Noroeste 39 Noroeste 0 -- -- 48
2019-09-24 16:00:00 27.9 14 Oeste 27 Oeste 0 -- -- 39
2019-09-24 15:00:00 26.3 10 Sudoeste 25 Sudoeste 0 -- -- 38
2019-09-24 14:00:00 24.6 9 Sudoeste 18 Sudoeste 0 -- -- 43
2019-09-24 13:00:00 23 8 Sudoeste 18 Oeste 0 -- -- 47
2019-09-24 12:00:00 21.5 10 Sudoeste 15 Sudoeste 0 -- -- 49
2019-09-24 11:00:00 19.6 8 Sur 12 Sur 0 -- -- 57
2019-09-24 10:00:00 16.8 4 Sur 5 Sur 0 -- -- 62
2019-09-24 09:00:00 14.7 3 Este 5 Oeste 0 -- -- 68
2019-09-24 08:00:00 15.2 5 Sudoeste 12 Noroeste 0 -- -- 72
2019-09-24 07:00:00 15 9 Noroeste 14 Noroeste 0 -- -- 73
2019-09-24 06:00:00 15.4 7 Noroeste 10 Noroeste 0 -- -- 68
2019-09-24 05:00:00 18 11 Noroeste 21 Noroeste 0 -- -- 60
2019-09-24 04:00:00 18.1 16 Noroeste 21 Noroeste 0 -- -- 58
2019-09-24 03:00:00 18.4 13 Noroeste 18 Noroeste 0 -- -- 48
2019-09-24 02:00:00 19 13 Noroeste 15 Noroeste 0 -- -- 44
2019-09-24 01:00:00 19.5 10 Noroeste 14 Noroeste 0 -- -- 43
2019-09-24 00:00:00 18.8 13 Noroeste 14 Noroeste 0 -- -- 47
2019-09-23 23:00:00 19.2 7 Norte 9 Norte 0 -- -- 44
2019-09-23 22:00:00 19.7 0 Calma 8 Sudoeste 0 -- -- 45
2019-09-23 21:00:00 22 7 Sur 14 Sudoeste 0 -- -- 40
2019-09-23 20:00:00 24 12 Sur 22 Sudoeste 0 -- -- 36
2019-09-23 19:00:00 25.4 12 Sudoeste 23 Sur 0 -- -- 33
2019-09-23 18:00:00 26.1 13 Sur 21 Sudoeste 0 -- -- 31
2019-09-23 17:00:00 25.6 8 Oeste 22 Sudoeste 0 -- -- 32
2019-09-23 16:00:00 24.8 11 Sur 20 Sudeste 0 -- -- 34
2019-09-23 15:00:00 24 8 Sudoeste 19 Sudoeste 0 -- -- 36
2019-09-23 14:00:00 22.6 10 Sudoeste 20 Sudoeste 0 -- -- 41
2019-09-23 13:00:00 21.4 8 Sudoeste 17 Sudoeste 0 -- -- 44
2019-09-23 12:00:00 19.5 6 Sudoeste 12 Sudoeste 0 -- -- 54
2019-09-23 11:00:00 17.6 5 Sudeste 9 Sudeste 0 -- -- 64
2019-09-23 10:00:00 15.3 5 Este 12 Este 0 -- -- 73
2019-09-23 09:00:00 13.6 0 Calma 8 Norte 0 -- -- 78
2019-09-23 08:00:00 12.5 3 Nordeste 10 Norte 0 -- -- 78
2019-09-23 07:00:00 13.1 0 Calma 9 Sudeste 0 -- -- 73
2019-09-23 06:00:00 14.5 4 Este 10 Norte 0 -- -- 68
2019-09-23 05:00:00 15.4 10 Norte 14 Norte 0 -- -- 62
2019-09-23 04:00:00 15.5 12 Norte 18 Noroeste 0 -- -- 65
2019-09-23 03:00:00 15.5 14 Noroeste 19 Noroeste 0 -- -- 66
2019-09-23 02:00:00 15.9 10 Noroeste 12 Noroeste 0 -- -- 65
2019-09-23 01:00:00 16.3 7 Noroeste 12 Noroeste 0 -- -- 63
2019-09-23 00:00:00 16.9 10 Noroeste 15 Noroeste 0 -- -- 63
2019-09-22 23:00:00 17.1 13 Noroeste 15 Noroeste 0 -- -- 63
2019-09-22 22:00:00 17.6 12 Noroeste 14 Noroeste 0 -- -- 62
2019-09-22 21:00:00 18 9 Noroeste 17 Noroeste 0 -- -- 60
2019-09-22 20:00:00 19.9 13 Noroeste 27 Noroeste 0 -- -- 52
2019-09-22 19:00:00 21.6 18 Noroeste 29 Oeste 0 -- -- 49
2019-09-22 18:00:00 21.6 24 Noroeste 34 Noroeste 0 -- -- 49
2019-09-22 17:00:00 22 19 Noroeste 33 Noroeste 0 -- -- 48
2019-09-22 16:00:00 21.5 21 Noroeste 29 Oeste 0 -- -- 47
2019-09-22 15:00:00 20.6 19 Oeste 31 Noroeste 0 -- -- 57
2019-09-22 14:00:00 19.6 20 Oeste 38 Oeste 0 -- -- 63
2019-09-22 13:00:00 18.6 19 Oeste 31 Oeste 0 -- -- 69
2019-09-22 12:00:00 18 18 Oeste 25 Noroeste 0 -- -- 74
2019-09-22 11:00:00 16.1 16 Noroeste 23 Noroeste 0 -- -- 82
2019-09-22 10:00:00 14.8 18 Noroeste 27 Oeste 0 -- -- 85
2019-09-22 09:00:00 14.2 17 Noroeste 27 Noroeste 0 -- -- 85
2019-09-22 08:00:00 13.6 15 Noroeste 24 Noroeste 0 -- -- 87
2019-09-22 07:00:00 14.9 18 Noroeste 25 Noroeste 0.2 -- -- 84
2019-09-22 06:00:00 17.2 14 Sudoeste 21 Sudoeste 0.2 -- -- 95
2019-09-22 05:00:00 17.3 10 Sudoeste 20 Sudoeste 0.8 -- -- 94
2019-09-22 04:00:00 17.5 7 Sur 22 Sur 0 -- -- 92
2019-09-22 03:00:00 17.7 17 Sur 34 Sudoeste 0 -- -- 89
2019-09-22 02:00:00 19.1 18 Sudoeste 33 Sudoeste 0 -- -- 81
2019-09-22 01:00:00 19.3 8 Este 15 Sudeste 0 -- -- 81
2019-09-22 00:00:00 19.2 7 Sudoeste 32 Sudoeste 0 -- -- 74
2019-09-21 23:00:00 20.1 12 Sur 22 Sur 0 -- -- 74
2019-09-21 22:00:00 20.3 10 Sudeste 26 Sur 0 -- -- 76
2019-09-21 21:00:00 20.8 11 Sur 18 Sudoeste 0 -- -- 73
2019-09-21 20:00:00 20.9 7 Sur 13 Sudoeste 0 -- -- 74
2019-09-21 19:00:00 21 11 Sudoeste 24 Sur 0 -- -- 74
2019-09-21 18:00:00 21.5 12 Sur 19 Sur 0 -- -- 72
2019-09-21 17:00:00 19.5 5 Sur 9 Sur 0 -- -- 77
2019-09-21 16:00:00 17.8 4 Nordeste 12 Nordeste 0.4 -- -- 81
2019-09-21 15:00:00 16.7 6 Norte 27 Sudoeste 1 -- -- 83
2019-09-21 14:00:00 20.9 14 Sur 29 Sur 0 -- -- 59
2019-09-21 13:00:00 20.9 14 Sur 21 Sudeste 0 -- -- 56
2019-09-21 12:00:00 19.6 15 Sur 21 Sur 0 -- -- 73
2019-09-21 11:00:00 19.6 12 Sudeste 25 Sudeste 0 -- -- 73
2019-09-21 10:00:00 18.9 8 Este 20 Este 0 -- -- 74
2019-09-21 09:00:00 18.3 14 Este 20 Este 0 -- -- 76
2019-09-21 08:00:00 18 14 Este 20 Nordeste 0 -- -- 77
2019-09-21 07:00:00 18.2 16 Este 23 Nordeste 0 -- -- 76
2019-09-21 06:00:00 18.1 12 Nordeste 18 Nordeste 0 -- -- 78
2019-09-21 05:00:00 18.2 10 Nordeste 13 Nordeste 0 -- -- 79
2019-09-21 04:00:00 18.2 8 Nordeste 15 Nordeste 0 -- -- 79
2019-09-21 03:00:00 17.9 10 Nordeste 17 Este 0 -- -- 79
2019-09-21 02:00:00 17.4 6 Nordeste 8 Nordeste 0 -- -- 85
2019-09-21 01:00:00 17.8 6 Sudeste 8 Sudeste 0 -- -- 80
2019-09-21 00:00:00 18.7 3 Norte 12 Oeste 0 -- -- 73
2019-09-20 23:00:00 19.2 10 Oeste 13 Oeste 0 -- -- 73
2019-09-20 22:00:00 19.5 8 Oeste 16 Oeste 0 -- -- 76
2019-09-20 21:00:00 19.9 6 Oeste 15 Oeste 0 -- -- 72
2019-09-20 20:00:00 20.9 11 Oeste 32 Sudoeste 0 -- -- 65
2019-09-20 19:00:00 23.5 21 Oeste 43 Sudoeste 0 -- -- 50
2019-09-20 18:00:00 26.4 23 Sudoeste 34 Sudoeste 0 -- -- 40
2019-09-20 17:00:00 27.5 20 Sudoeste 39 Sur 0 -- -- 37
2019-09-20 16:00:00 26.8 24 Sur 33 Sur 0 -- -- 39
2019-09-20 15:00:00 26.1 13 Sudeste 31 Sur 0 -- -- 40
2019-09-20 14:00:00 26.1 19 Sur 32 Sur 0 -- -- 40
2019-09-20 13:00:00 25.4 14 Sur 27 Sudeste 0 -- -- 40
2019-09-20 12:00:00 24.7 15 Sudeste 23 Sudeste 0 -- -- 41
2019-09-20 11:00:00 22.1 15 Este 22 Este 0 -- -- 51
2019-09-20 10:00:00 19.9 14 Este 19 Este 0 -- -- 59
2019-09-20 09:00:00 18.8 14 Este 21 Este 0 -- -- 62
2019-09-20 08:00:00 18 14 Este 19 Este 0 -- -- 62
2019-09-20 07:00:00 18.5 16 Este 21 Nordeste 0 -- -- 61
2019-09-20 06:00:00 18.3 10 Este 15 Nordeste 0 -- -- 60
2019-09-20 05:00:00 18.9 8 Este 12 Este 0 -- -- 55
2019-09-20 04:00:00 20 8 Este 16 Este 0 -- -- 49
2019-09-20 03:00:00 21.4 5 Nordeste 14 Nordeste 0 -- -- 44
2019-09-20 02:00:00 21.8 6 Oeste 21 Noroeste 0 -- -- 44
2019-09-20 01:00:00 21.8 8 Noroeste 13 Noroeste 0 -- -- 44
2019-09-20 00:00:00 21.6 9 Sur 17 Sur 0 -- -- 43